Time;durP1;ratioP1;P1;durP2;ratioP2;P2;SDS_P1;SDS_P2;PMS_P1;PMS_P2;Temp;Humidity;BMP_temperature;BMP_pressure;BME280_temperature;BME280_humidity;BME280_pressure;Samples;Min_cycle;Max_cycle;Signal;HPM_P1;HPM_P2
2021/07/16 00:01:33;;;;;;;14.30;11.85;;;615.00;2432.00;;;;;;5108571;28;20091;-72
2021/07/16 00:03:59;;;;;;;19.95;12.80;;;615.20;2432.00;;;;;;5111847;28;20478;-72
2021/07/16 00:06:25;;;;;;;18.27;13.13;;;615.20;2432.00;;;;;;5092795;28;20035;-72
2021/07/16 00:08:51;;;;;;;14.98;12.38;;;615.30;2432.00;;;;;;5104116;28;20024;-72
2021/07/16 00:11:16;;;;;;;16.63;12.20;;;615.30;2432.00;;;;;;5091079;28;20031;-72
2021/07/16 00:13:42;;;;;;;15.20;12.65;;;615.30;2432.00;;;;;;5109583;28;20566;-72
2021/07/16 00:16:08;;;;;;;16.73;11.95;;;615.30;2432.00;;;;;;5111278;28;20031;-72
2021/07/16 00:18:34;;;;;;;15.57;12.43;;;615.30;2432.00;;;;;;5110896;28;20490;-72
2021/07/16 00:21:04;;;;;;;17.00;12.32;;;615.20;2432.00;;;;;;5102103;28;20079;-72
2021/07/16 00:23:30;;;;;;;15.20;12.00;;;615.10;2432.00;;;;;;5106176;28;20545;-72
2021/07/16 00:25:56;;;;;;;15.20;11.90;;;615.20;2432.00;;;;;;5110694;28;20505;-72
2021/07/16 00:28:22;;;;;;;14.38;12.48;;;615.30;2432.00;;;;;;5110942;28;20023;-72
2021/07/16 00:30:50;;;;;;;16.33;12.10;;;615.30;2432.00;;;;;;5092489;28;20370;-72
2021/07/16 00:33:16;;;;;;;15.93;12.38;;;640.00;2432.00;;;;;;5111148;28;20055;-72
2021/07/16 00:35:41;;;;;;;15.98;11.38;;;640.00;2432.00;;;;;;5110648;28;20128;-72
2021/07/16 00:38:07;;;;;;;13.50;11.82;;;640.10;2432.00;;;;;;5110941;28;20023;-72
2021/07/16 00:40:33;;;;;;;14.65;11.02;;;640.20;2432.00;;;;;;5100812;28;20756;-72
2021/07/16 00:42:59;;;;;;;13.35;11.27;;;640.10;2432.00;;;;;;5110835;28;20366;-71
2021/07/16 00:45:25;;;;;;;16.92;12.75;;;640.20;2432.00;;;;;;5109863;28;20019;-71
2021/07/16 00:47:51;;;;;;;14.27;11.63;;;640.10;2432.00;;;;;;5110611;28;20103;-71
2021/07/16 00:50:23;;;;;;;14.93;12.30;;;640.10;2432.00;;;;;;5104335;28;20031;-72
2021/07/16 00:52:49;;;;;;;14.30;11.98;;;640.10;2432.00;;;;;;5078269;28;20186;-71
2021/07/16 00:55:17;;;;;;;14.88;12.35;;;640.10;2432.00;;;;;;5104775;28;20106;-71
2021/07/16 00:57:43;;;;;;;21.38;12.63;;;640.10;2432.00;;;;;;5110305;28;20020;-72
2021/07/16 01:00:11;;;;;;;14.00;11.70;;;640.10;2432.00;;;;;;5111028;28;20024;-72
2021/07/16 01:02:38;;;;;;;17.75;12.32;;;640.20;2432.00;;;;;;5092034;28;20072;-72
2021/07/16 01:05:09;;;;;;;17.45;12.77;;;640.00;2432.00;;;;;;5110983;28;20023;-72
2021/07/16 01:07:35;;;;;;;16.80;12.82;;;640.00;2432.00;;;;;;5110217;28;20474;-72
2021/07/16 01:10:02;;;;;;;15.35;11.20;;;615.30;2432.00;;;;;;5110430;28;20370;-72
2021/07/16 01:12:31;;;;;;;17.02;12.65;;;640.00;2432.00;;;;;;5110173;28;20047;-72
2021/07/16 01:14:57;;;;;;;15.77;12.15;;;640.00;2432.00;;;;;;5102825;28;20012;-72
2021/07/16 01:17:24;;;;;;;14.45;12.57;;;640.10;2432.00;;;;;;5085019;28;20035;-72
2021/07/16 01:20:07;;;;;;;16.33;12.40;;;640.10;2432.00;;;;;;5110337;28;20020;-72
2021/07/16 01:22:36;;;;;;;16.88;13.45;;;640.10;2432.00;;;;;;5110435;28;20043;-72
2021/07/16 01:25:05;;;;;;;16.10;12.00;;;640.10;2432.00;;;;;;5077409;28;20044;-72
2021/07/16 01:27:32;;;;;;;18.35;12.00;;;640.10;2432.00;;;;;;5078848;28;20027;-71
2021/07/16 01:29:59;;;;;;;14.48;11.93;;;640.10;2432.00;;;;;;5108642;28;20041;-72
2021/07/16 01:32:26;;;;;;;15.93;13.93;;;640.00;2432.00;;;;;;5109812;28;20055;-72
2021/07/16 01:34:52;;;;;;;16.02;11.98;;;615.20;2432.00;;;;;;5110245;28;20038;-72
2021/07/16 01:37:18;;;;;;;14.88;12.93;;;615.10;2432.00;;;;;;5092741;28;20027;-72
2021/07/16 01:39:44;;;;;;;21.25;12.95;;;615.30;2432.00;;;;;;5114210;28;20020;-72
2021/07/16 01:42:11;;;;;;;16.98;13.88;;;615.30;2432.00;;;;;;5109724;28;20069;-72
2021/07/16 01:44:38;;;;;;;16.35;13.18;;;615.10;2432.00;;;;;;5093900;28;20020;-72
2021/07/16 01:47:05;;;;;;;19.88;14.35;;;615.00;2432.00;;;;;;5110051;28;20397;-72
2021/07/16 01:49:31;;;;;;;18.85;14.73;;;615.00;2432.00;;;;;;5112292;28;20028;-72
2021/07/16 01:51:57;;;;;;;18.92;13.90;;;615.10;2432.00;;;;;;5083223;28;20141;-72
2021/07/16 01:54:23;;;;;;;16.52;14.18;;;614.90;2432.00;;;;;;5113315;28;20032;-72
2021/07/16 01:56:49;;;;;;;18.00;14.75;;;614.90;2432.00;;;;;;5110263;28;20030;-72
2021/07/16 01:59:15;;;;;;;17.25;14.02;;;615.00;2432.00;;;;;;5104276;28;20024;-72
2021/07/16 02:01:41;;;;;;;18.38;15.07;;;615.10;2432.00;;;;;;5109362;28;20037;-72
2021/07/16 02:04:07;;;;;;;17.38;15.57;;;615.20;2432.00;;;;;;5113583;28;20016;-72
2021/07/16 02:06:33;;;;;;;17.42;13.98;;;615.20;2432.00;;;;;;5094807;28;20035;-72
2021/07/16 02:09:00;;;;;;;19.80;14.60;;;615.20;2432.00;;;;;;5095114;28;20034;-72
2021/07/16 02:11:27;;;;;;;19.20;15.65;;;615.10;2432.00;;;;;;5113678;28;20032;-72
2021/07/16 02:13:53;;;;;;;20.55;16.02;;;615.10;2432.00;;;;;;5113342;28;20035;-72
2021/07/16 02:16:19;;;;;;;17.38;14.43;;;615.20;2432.00;;;;;;5113200;28;20027;-72
2021/07/16 02:18:53;;;;;;;17.88;13.48;;;615.20;2432.00;;;;;;5113884;28;20027;-72
2021/07/16 02:21:20;;;;;;;20.67;15.07;;;615.30;2432.00;;;;;;5112727;28;20043;-72
2021/07/16 02:23:46;;;;;;;18.23;14.95;;;615.30;2432.00;;;;;;5112738;28;20111;-72
2021/07/16 02:26:12;;;;;;;23.55;19.55;;;615.30;2432.00;;;;;;5113199;28;20393;-71
2021/07/16 02:28:39;;;;;;;26.02;17.50;;;615.30;2432.00;;;;;;5113911;28;20024;-72
2021/07/16 02:31:06;;;;;;;22.10;17.65;;;615.30;2432.00;;;;;;5113164;28;20057;-72
2021/07/16 02:33:33;;;;;;;21.65;15.80;;;615.30;2432.00;;;;;;5113873;28;20035;-72
2021/07/16 02:35:59;;;;;;;18.98;15.98;;;640.00;2432.00;;;;;;5112718;28;20027;-72
2021/07/16 02:38:25;;;;;;;25.73;16.90;;;615.30;2432.00;;;;;;5113084;28;20073;-72
2021/07/16 02:40:52;;;;;;;20.50;15.48;;;615.30;2432.00;;;;;;5113827;28;20016;-73
2021/07/16 02:43:18;;;;;;;20.98;16.25;;;640.00;2432.00;;;;;;5113491;28;20023;-72
2021/07/16 02:45:44;;;;;;;20.58;15.90;;;640.00;2432.00;;;;;;5095037;28;20038;-72
2021/07/16 02:48:10;;;;;;;21.58;16.35;;;640.00;2432.00;;;;;;5103417;28;20050;-72
2021/07/16 02:50:39;;;;;;;22.73;16.48;;;640.00;2432.00;;;;;;5112929;28;20031;-72
2021/07/16 02:53:06;;;;;;;22.67;17.48;;;640.00;2432.00;;;;;;5113045;28;20032;-71
2021/07/16 02:55:32;;;;;;;27.88;18.90;;;640.00;2432.00;;;;;;5113028;28;20024;-72
2021/07/16 02:57:58;;;;;;;29.58;21.98;;;640.00;2432.00;;;;;;5112495;28;20149;-71
2021/07/16 03:00:27;;;;;;;26.38;21.75;;;640.00;2432.00;;;;;;5094571;28;20146;-70
2021/07/16 03:02:53;;;;;;;26.00;19.27;;;640.00;2432.00;;;;;;5112654;28;20486;-71
2021/07/16 03:05:38;;;;;;;30.30;21.15;;;640.00;2432.00;;;;;;5092140;28;20024;-71
2021/07/16 03:08:07;;;;;;;24.48;18.42;;;640.00;2432.00;;;;;;5108221;28;20393;-71
2021/07/16 03:10:41;;;;;;;23.45;18.40;;;640.00;2432.00;;;;;;5112314;28;20024;-71
2021/07/16 03:13:13;;;;;;;25.92;19.38;;;640.00;2432.00;;;;;;5111959;28;20031;-71
2021/07/16 03:15:39;;;;;;;31.33;18.27;;;640.00;2432.00;;;;;;5112165;28;20373;-71
2021/07/16 03:18:06;;;;;;;27.27;16.60;;;640.00;2432.00;;;;;;5093034;28;20034;-72
2021/07/16 03:20:38;;;;;;;19.73;16.20;;;640.00;2432.00;;;;;;5112198;28;20023;-71
2021/07/16 03:23:08;;;;;;;22.45;15.88;;;615.20;2432.00;;;;;;5088987;28;20044;-71
2021/07/16 03:25:35;;;;;;;29.52;17.70;;;615.30;2432.00;;;;;;5109021;28;20020;-71
2021/07/16 03:28:03;;;;;;;18.85;15.20;;;615.30;2432.00;;;;;;5102984;28;20458;-71
2021/07/16 03:30:31;;;;;;;20.42;15.63;;;615.30;2432.00;;;;;;5107012;28;20103;-71
2021/07/16 03:32:58;;;;;;;19.85;15.10;;;615.30;2432.00;;;;;;5103015;28;20027;-71
2021/07/16 03:35:25;;;;;;;21.35;15.75;;;615.30;2432.00;;;;;;5107395;28;20057;-71
2021/07/16 03:37:52;;;;;;;20.13;15.38;;;615.30;2432.00;;;;;;5103671;28;20019;-72
2021/07/16 03:40:22;;;;;;;18.10;15.50;;;640.00;2432.00;;;;;;5111842;28;20016;-71
2021/07/16 03:42:48;;;;;;;16.98;14.40;;;615.30;2432.00;;;;;;5094173;28;20023;-71
2021/07/16 03:45:15;;;;;;;23.00;15.20;;;615.20;2432.00;;;;;;5111621;28;20044;-71
2021/07/16 03:47:45;;;;;;;16.45;14.15;;;615.30;2432.00;;;;;;5112120;28;20034;-71
2021/07/16 03:50:13;;;;;;;19.80;14.57;;;615.20;2432.00;;;;;;5112287;28;20028;-71
2021/07/16 03:52:39;;;;;;;29.35;15.07;;;615.30;2432.00;;;;;;5111146;28;20102;-71
2021/07/16 03:55:08;;;;;;;19.35;13.32;;;640.00;2432.00;;;;;;5111703;28;20106;-71
2021/07/16 03:57:34;;;;;;;15.82;13.23;;;640.00;2432.00;;;;;;5111701;28;20106;-72
2021/07/16 04:00:05;;;;;;;18.35;14.10;;;640.00;2432.00;;;;;;5111815;28;20425;-73
2021/07/16 04:02:31;;;;;;;19.70;14.63;;;615.20;2432.00;;;;;;5093769;28;20030;-72
2021/07/16 04:04:58;;;;;;;18.27;14.73;;;615.10;2432.00;;;;;;5112346;28;20069;-72
2021/07/16 04:07:29;;;;;;;19.30;14.65;;;615.10;2432.00;;;;;;5111623;28;20024;-72
2021/07/16 04:09:55;;;;;;;16.92;13.88;;;615.20;2432.00;;;;;;5111421;28;20466;-72
2021/07/16 04:12:21;;;;;;;21.02;14.55;;;615.30;2432.00;;;;;;5111785;28;20024;-72
2021/07/16 04:14:52;;;;;;;16.10;14.13;;;615.20;2432.00;;;;;;5111294;28;20047;-72
2021/07/16 04:17:24;;;;;;;21.33;16.55;;;615.10;2432.00;;;;;;5111651;28;20370;-72
2021/07/16 04:19:51;;;;;;;21.63;15.68;;;614.90;2432.00;;;;;;5111341;28;20786;-71
2021/07/16 04:22:18;;;;;;;28.92;17.05;;;615.30;2432.00;;;;;;5110993;28;20058;-72
2021/07/16 04:24:45;;;;;;;23.15;16.10;;;615.10;2432.00;;;;;;5111913;28;20016;-72
2021/07/16 04:27:13;;;;;;;22.77;17.60;;;615.20;2432.00;;;;;;5111178;28;20024;-72
2021/07/16 04:29:40;;;;;;;21.90;16.63;;;615.20;2432.00;;;;;;5093664;28;20023;-72
2021/07/16 04:32:06;;;;;;;18.85;15.55;;;615.20;2432.00;;;;;;5111228;28;20032;-71
2021/07/16 04:34:34;;;;;;;20.40;16.30;;;615.10;2432.00;;;;;;5111649;28;20035;-71
2021/07/16 04:37:02;;;;;;;22.92;15.50;;;615.10;2432.00;;;;;;5111150;28;20027;-71
2021/07/16 04:39:28;;;;;;;21.65;15.60;;;615.20;2432.00;;;;;;5111753;28;20051;-72
2021/07/16 04:41:54;;;;;;;20.05;14.57;;;615.20;2432.00;;;;;;5111047;28;20112;-72
2021/07/16 04:44:20;;;;;;;18.42;14.80;;;615.20;2432.00;;;;;;5111454;28;20026;-71
2021/07/16 04:46:46;;;;;;;17.98;15.73;;;615.20;2432.00;;;;;;5111139;28;20448;-71
2021/07/16 04:49:12;;;;;;;19.90;13.68;;;640.00;2432.00;;;;;;5110729;28;20016;-72
2021/07/16 04:51:38;;;;;;;17.42;14.35;;;640.00;2432.00;;;;;;5111081;28;20352;-71
2021/07/16 04:54:05;;;;;;;17.90;14.43;;;640.00;2432.00;;;;;;5092685;28;20027;-72
2021/07/16 04:56:31;;;;;;;18.42;14.25;;;615.20;2432.00;;;;;;5092751;28;20024;-71
2021/07/16 04:58:57;;;;;;;17.63;13.15;;;615.20;2432.00;;;;;;5110895;28;20416;-71
2021/07/16 05:01:24;;;;;;;15.13;12.30;;;615.20;2432.00;;;;;;5111225;28;20020;-72
2021/07/16 05:03:51;;;;;;;17.27;14.25;;;615.10;2432.00;;;;;;5110816;28;20069;-72
2021/07/16 05:06:18;;;;;;;13.93;12.50;;;615.10;2432.00;;;;;;5092863;28;20026;-71
2021/07/16 05:08:44;;;;;;;17.33;14.13;;;615.10;2432.00;;;;;;5096834;28;20023;-72
2021/07/16 05:11:10;;;;;;;18.60;12.38;;;615.20;2432.00;;;;;;5110785;28;20024;-72
2021/07/16 05:13:37;;;;;;;15.93;13.88;;;615.30;2432.00;;;;;;5114485;28;20035;-72
2021/07/16 05:16:04;;;;;;;16.50;12.23;;;615.30;2432.00;;;;;;5096536;28;20444;-72
2021/07/16 05:18:30;;;;;;;15.98;13.15;;;640.00;2432.00;;;;;;5115147;28;20359;-72
2021/07/16 05:20:57;;;;;;;15.05;12.73;;;640.00;2432.00;;;;;;5114827;28;20031;-72
2021/07/16 05:23:23;;;;;;;15.52;12.13;;;640.00;2432.00;;;;;;5115094;28;20028;-72
2021/07/16 05:25:49;;;;;;;14.50;12.68;;;640.00;2432.00;;;;;;5104478;28;20080;-71
2021/07/16 05:28:15;;;;;;;13.48;11.90;;;640.00;2432.00;;;;;;5114221;28;20432;-72
2021/07/16 05:30:41;;;;;;;15.32;11.50;;;640.00;2432.00;;;;;;5108491;28;20035;-72
2021/07/16 05:33:07;;;;;;;16.17;12.43;;;640.00;2432.00;;;;;;5106983;28;20028;-71
2021/07/16 05:35:33;;;;;;;15.40;11.40;;;640.00;2432.00;;;;;;5110579;28;20081;-72
2021/07/16 05:37:59;;;;;;;17.88;11.55;;;640.00;2432.00;;;;;;5113285;28;20020;-72
2021/07/16 05:40:26;;;;;;;14.88;11.93;;;640.00;2432.00;;;;;;5114240;28;20034;-72
2021/07/16 05:42:52;;;;;;;13.75;11.57;;;640.00;2432.00;;;;;;5113410;28;20015;-72
2021/07/16 05:45:18;;;;;;;14.18;11.40;;;615.20;2432.00;;;;;;5114171;28;20044;-72
2021/07/16 05:47:43;;;;;;;16.33;12.00;;;615.30;2432.00;;;;;;5113454;28;20098;-72
2021/07/16 05:54:21;;;;;;;16.75;12.68;;;615.20;2432.00;;;;;;5101061;28;20062;-71
2021/07/16 05:56:46;;;;;;;16.30;12.35;;;615.20;2432.00;;;;;;5110733;28;20487;-71
2021/07/16 05:59:12;;;;;;;17.38;13.75;;;615.10;2432.00;;;;;;5105840;28;20027;-71
2021/07/16 06:01:38;;;;;;;16.27;14.25;;;615.10;2432.00;;;;;;5112008;28;20023;-71
2021/07/16 06:04:09;;;;;;;19.27;15.50;;;615.00;2432.00;;;;;;5103621;28;20023;-72
2021/07/16 06:06:36;;;;;;;18.05;14.70;;;615.00;2432.00;;;;;;5113503;28;20023;-72
2021/07/16 06:09:04;;;;;;;20.95;13.52;;;614.90;2432.00;;;;;;5102467;28;20022;-72
2021/07/16 06:11:30;;;;;;;17.67;14.48;;;615.00;2432.00;;;;;;5095481;28;20031;-72
2021/07/16 06:13:55;;;;;;;14.98;13.13;;;615.20;2432.00;;;;;;5113510;28;20020;-72
2021/07/16 06:16:21;;;;;;;15.30;13.77;;;615.30;2432.00;;;;;;5113663;28;20071;-72
2021/07/16 06:18:47;;;;;;;19.77;14.68;;;640.00;2432.00;;;;;;5113014;28;20099;-73
2021/07/16 06:21:12;;;;;;;23.63;15.48;;;640.00;2432.00;;;;;;5113703;28;20065;-72
2021/07/16 06:23:39;;;;;;;17.85;13.75;;;640.00;2432.00;;;;;;5113409;28;20784;-72
2021/07/16 06:26:05;;;;;;;16.88;13.48;;;640.00;2432.00;;;;;;5113780;28;20450;-72
2021/07/16 06:28:31;;;;;;;17.60;13.90;;;615.20;2432.00;;;;;;5105681;28;20027;-72
2021/07/16 06:30:57;;;;;;;18.50;13.55;;;615.20;2432.00;;;;;;5113660;28;20062;-72
2021/07/16 06:33:22;;;;;;;17.08;13.25;;;615.20;2432.00;;;;;;5106003;28;20526;-72
2021/07/16 06:35:48;;;;;;;16.92;13.18;;;615.20;2432.00;;;;;;5112547;28;20028;-73
2021/07/16 06:38:14;;;;;;;14.35;12.00;;;615.20;2432.00;;;;;;5113061;28;20084;-73
2021/07/16 06:40:40;;;;;;;21.15;14.52;;;615.30;2432.00;;;;;;5113841;28;20018;-73
2021/07/16 06:43:09;;;;;;;15.40;12.77;;;640.00;2432.00;;;;;;5105392;28;20075;-73
2021/07/16 06:45:37;;;;;;;15.68;13.48;;;640.00;2432.00;;;;;;5099044;28;20470;-73
2021/07/16 06:48:04;;;;;;;15.88;13.02;;;640.00;2432.00;;;;;;5112989;28;20413;-73
2021/07/16 06:50:30;;;;;;;17.35;13.57;;;640.00;2432.00;;;;;;5112981;28;20051;-72
2021/07/16 06:52:56;;;;;;;14.00;12.48;;;640.00;2432.00;;;;;;5111164;28;20508;-73
2021/07/16 06:55:21;;;;;;;20.77;13.18;;;640.10;2432.00;;;;;;5112991;28;20468;-72
2021/07/16 06:57:47;;;;;;;14.40;12.85;;;640.20;2432.00;;;;;;5113207;28;20031;-72
2021/07/16 07:00:13;;;;;;;19.00;11.20;;;640.60;2432.00;;;;;;5093520;28;20471;-72
2021/07/16 07:02:39;;;;;;;14.75;11.85;;;665.80;2432.00;;;;;;5111309;28;20020;-72
2021/07/16 07:05:06;;;;;;;12.95;10.77;;;666.40;2432.00;;;;;;5112920;28;20378;-72
2021/07/16 07:07:31;;;;;;;13.20;11.02;;;691.20;2432.00;;;;;;5112681;28;20111;-73
2021/07/16 07:09:57;;;;;;;12.68;11.38;;;691.40;2432.00;;;;;;5098578;28;20102;-73
2021/07/16 07:12:23;;;;;;;13.38;10.70;;;691.70;2432.00;;;;;;5113085;28;20110;-73
2021/07/16 07:14:49;;;;;;;13.98;11.23;;;691.80;2432.00;;;;;;5113473;28;20024;-73
2021/07/16 07:17:14;;;;;;;12.75;11.40;;;692.00;2432.00;;;;;;5112963;28;20036;-73
2021/07/16 07:19:40;;;;;;;18.65;12.10;;;692.00;2432.00;;;;;;5113416;28;20019;-73
2021/07/16 07:22:06;;;;;;;15.52;11.80;;;691.90;2432.00;;;;;;5112699;28;20131;-73
2021/07/16 07:24:31;;;;;;;20.52;11.75;;;716.90;2432.00;;;;;;5113420;28;20104;-73
2021/07/16 07:26:57;;;;;;;14.35;11.63;;;717.00;2432.00;;;;;;5112947;28;20032;-73
2021/07/16 07:29:26;;;;;;;13.98;12.48;;;717.10;2432.00;;;;;;5113351;28;20363;-73
2021/07/16 07:31:52;;;;;;;14.68;10.80;;;717.40;2432.00;;;;;;5094299;28;20473;-73
2021/07/16 07:34:18;;;;;;;15.93;11.75;;;717.60;2432.00;;;;;;5112820;28;20062;-73
2021/07/16 07:36:47;;;;;;;12.38;10.70;;;717.50;2432.00;;;;;;5112869;28;20454;-74
2021/07/16 07:39:13;;;;;;;16.90;11.85;;;717.50;2432.00;;;;;;5112706;28;20043;-73
2021/07/16 07:41:45;;;;;;;13.90;12.40;;;717.60;2432.00;;;;;;5112987;28;20017;-73
2021/07/16 07:44:14;;;;;;;14.60;11.65;;;717.60;2432.00;;;;;;5106954;28;20086;-73
2021/07/16 07:46:41;;;;;;;17.33;12.68;;;742.60;2432.00;;;;;;5099608;28;20429;-73
2021/07/16 07:49:07;;;;;;;16.50;12.18;;;742.70;2432.00;;;;;;5112393;28;20016;-73
2021/07/16 07:51:34;;;;;;;26.33;14.00;;;742.90;2432.00;;;;;;5112311;28;20508;-74
2021/07/16 07:54:00;;;;;;;17.02;12.05;;;742.90;2432.00;;;;;;5111831;28;20036;-73
2021/07/16 07:56:27;;;;;;;18.10;12.60;;;743.00;2432.00;;;;;;5112377;28;20055;-73
2021/07/16 07:58:53;;;;;;;16.17;12.45;;;768.10;2432.00;;;;;;5112316;28;20019;-73
2021/07/16 08:01:19;;;;;;;16.30;11.40;;;768.10;2432.00;;;;;;5112123;28;20024;-73
2021/07/16 08:03:45;;;;;;;20.77;13.98;;;768.10;2432.00;;;;;;5093498;28;20063;-73
2021/07/16 08:06:11;;;;;;;18.10;13.38;;;768.10;2432.00;;;;;;5111873;28;20055;-73
2021/07/16 08:08:36;;;;;;;20.35;14.93;;;768.20;2432.00;;;;;;5112173;28;20038;-73
2021/07/16 08:11:02;;;;;;;17.10;13.63;;;768.20;2432.00;;;;;;5097283;28;20026;-73
2021/07/16 08:13:28;;;;;;;19.65;13.88;;;768.40;2432.00;;;;;;5099768;28;20708;-74
2021/07/16 08:15:55;;;;;;;16.27;13.95;;;768.60;2432.00;;;;;;5099300;28;20100;-71
2021/07/16 08:18:21;;;;;;;15.10;13.60;;;768.80;2432.00;;;;;;5092169;28;20023;-72
2021/07/16 08:20:47;;;;;;;15.98;11.90;;;768.90;2432.00;;;;;;5105332;28;20081;-72
2021/07/16 08:23:12;;;;;;;14.25;12.48;;;794.30;2432.00;;;;;;5107569;28;20055;-72
2021/07/16 08:25:38;;;;;;;14.10;12.45;;;819.20;2432.00;;;;;;5099746;28;20028;-72
2021/07/16 08:28:04;;;;;;;18.85;12.40;;;794.40;2432.00;;;;;;5102213;28;20055;-71
2021/07/16 08:30:30;;;;;;;17.55;12.20;;;794.30;2432.00;;;;;;5104811;28;20058;-72
2021/07/16 08:32:56;;;;;;;14.77;13.27;;;793.80;2432.00;;;;;;5087752;28;20031;-72
2021/07/16 08:35:22;;;;;;;18.42;12.93;;;768.70;2432.00;;;;;;5103618;28;20843;-72
2021/07/16 08:37:48;;;;;;;14.65;13.07;;;768.20;2432.00;;;;;;5101964;28;20055;-73
2021/07/16 08:40:14;;;;;;;17.73;14.95;;;768.00;2432.00;;;;;;5102663;28;20024;-72
2021/07/16 08:42:40;;;;;;;31.45;26.42;;;768.20;2432.00;;;;;;5106484;28;20019;-72
2021/07/16 08:45:08;;;;;;;23.75;15.30;;;768.40;2432.00;;;;;;5107881;28;20386;-72
2021/07/16 08:47:34;;;;;;;15.48;13.75;;;768.40;2432.00;;;;;;5102666;28;20479;-72
2021/07/16 08:50:05;;;;;;;16.80;12.90;;;793.60;2432.00;;;;;;5107757;28;20052;-72
2021/07/16 08:52:31;;;;;;;17.80;12.07;;;793.60;2432.00;;;;;;5104407;28;20048;-72
2021/07/16 08:58:00;;;;;;;19.88;12.73;;;793.80;2432.00;;;;;;5112151;28;20054;-74
2021/07/16 09:00:26;;;;;;;14.70;12.80;;;793.90;2432.00;;;;;;5113056;28;20027;-74
2021/07/16 09:02:57;;;;;;;17.70;14.50;;;793.70;2432.00;;;;;;5108266;28;20738;-74
2021/07/16 09:05:42;;;;;;;18.27;15.48;;;768.80;2432.00;;;;;;5106900;28;20030;-73
2021/07/16 09:08:13;;;;;;;15.52;13.75;;;768.50;2432.00;;;;;;5104183;28;20024;-74
2021/07/16 09:10:46;;;;;;;18.88;14.43;;;768.70;2432.00;;;;;;5107539;28;20545;-74
2021/07/16 09:13:13;;;;;;;15.02;12.32;;;768.80;2432.00;;;;;;5112807;28;20341;-72
2021/07/16 09:15:39;;;;;;;18.30;13.43;;;768.80;2432.00;;;;;;5105022;28;20482;-73
2021/07/16 09:18:22;;;;;;;18.02;13.27;;;794.10;2432.00;;;;;;5106979;28;20054;-73
2021/07/16 09:21:09;;;;;;;15.40;12.82;;;794.20;2432.00;;;;;;5110871;28;20035;-73
2021/07/16 09:23:46;;;;;;;14.52;12.90;;;794.30;2432.00;;;;;;5107450;28;20055;-73
2021/07/16 09:26:15;;;;;;;16.48;12.35;;;794.50;2432.00;;;;;;5107480;28;20066;-74
2021/07/16 09:28:46;;;;;;;19.48;14.18;;;819.20;2432.00;;;;;;5091529;28;20026;-73
2021/07/16 09:31:17;;;;;;;15.65;12.60;;;820.10;2432.00;;;;;;5103499;28;20027;-74
2021/07/16 09:33:56;;;;;;;22.52;14.00;;;845.60;2432.00;;;;;;5106222;28;20019;-73
2021/07/16 09:36:27;;;;;;;15.02;12.65;;;845.30;2432.00;;;;;;5085843;28;20046;-73
2021/07/16 09:39:18;;;;;;;14.15;12.60;;;845.40;2432.00;;;;;;5090013;28;20114;-73
2021/07/16 09:41:57;;;;;;;18.98;12.43;;;845.30;2432.00;;;;;;5093204;28;20373;-73
2021/07/16 09:44:35;;;;;;;16.92;13.02;;;845.30;2432.00;;;;;;5106315;28;20090;-73
2021/07/16 09:47:18;;;;;;;17.27;12.82;;;844.80;2432.00;;;;;;5083738;28;20050;-72
2021/07/16 09:49:48;;;;;;;16.80;12.27;;;819.80;2432.00;;;;;;5080656;28;20110;-73
2021/07/16 09:52:19;;;;;;;23.15;14.20;;;819.70;2432.00;;;;;;5106645;28;20452;-73
2021/07/16 09:55:18;;;;;;;14.23;12.60;;;819.20;2432.00;;;;;;5103222;28;20024;-74
2021/07/16 09:57:55;;;;;;;14.15;12.65;;;793.90;2432.00;;;;;;5105938;28;20482;-73
2021/07/16 10:00:26;;;;;;;16.30;12.07;;;768.70;2432.00;;;;;;5109177;28;20022;-73
2021/07/16 10:02:53;;;;;;;14.35;12.00;;;768.50;2432.00;;;;;;5086144;28;20057;-73
2021/07/16 10:05:20;;;;;;;17.17;12.55;;;768.30;2432.00;;;;;;5087359;28;20490;-73
2021/07/16 10:07:46;;;;;;;18.08;12.95;;;768.20;2432.00;;;;;;5083554;28;20074;-72
2021/07/16 10:10:21;;;;;;;14.80;11.77;;;768.20;2432.00;;;;;;5108051;28;20032;-73
2021/07/16 10:12:49;;;;;;;16.90;11.43;;;768.20;2432.00;;;;;;5106096;28;20077;-73
2021/07/16 10:15:17;;;;;;;17.55;12.18;;;768.20;2432.00;;;;;;5110523;28;20022;-73
2021/07/16 10:17:43;;;;;;;16.27;13.35;;;768.50;2432.00;;;;;;5108848;28;20487;-73
2021/07/16 10:20:14;;;;;;;19.63;12.38;;;768.50;2432.00;;;;;;5104069;28;20042;-73
2021/07/16 10:22:41;;;;;;;27.10;14.40;;;768.70;2432.00;;;;;;5106674;28;20522;-73
2021/07/16 10:25:23;;;;;;;14.70;11.95;;;768.50;2432.00;;;;;;5109300;28;20028;-73
2021/07/16 10:27:52;;;;;;;15.50;12.50;;;768.40;2432.00;;;;;;5107764;28;20108;-73
2021/07/16 10:30:19;;;;;;;16.38;13.68;;;768.10;2432.00;;;;;;5108219;28;20428;-73
2021/07/16 10:32:46;;;;;;;15.40;13.02;;;768.00;2432.00;;;;;;5098603;28;20607;-73
2021/07/16 10:35:26;;;;;;;17.75;13.63;;;743.20;2432.00;;;;;;5108312;28;20058;-73
2021/07/16 10:37:58;;;;;;;25.90;13.07;;;768.00;2432.00;;;;;;5105811;28;20027;-73
2021/07/16 10:40:41;;;;;;;12.75;11.43;;;768.00;2432.00;;;;;;5085197;28;20069;-73
2021/07/16 10:43:33;;;;;;;15.60;11.30;;;768.10;2432.00;;;;;;5087169;28;20036;-73
2021/07/16 10:46:00;;;;;;;13.20;11.80;;;768.30;2432.00;;;;;;5082726;28;20499;-73
2021/07/16 10:48:37;;;;;;;17.02;12.07;;;768.70;2432.00;;;;;;5103892;28;20030;-74
2021/07/16 10:51:03;;;;;;;12.95;10.00;;;793.70;2432.00;;;;;;5106097;28;20043;-75
2021/07/16 10:53:29;;;;;;;11.43;9.27;;;793.90;2432.00;;;;;;5103380;28;20016;-73
2021/07/16 10:55:55;;;;;;;13.90;8.15;;;793.80;2432.00;;;;;;5099226;28;20401;-73
2021/07/16 10:58:23;;;;;;;12.38;9.25;;;793.70;2432.00;;;;;;5108601;28;20047;-74
2021/07/16 11:01:08;;;;;;;12.95;9.10;;;794.00;2432.00;;;;;;5099972;28;20107;-72
2021/07/16 11:03:41;;;;;;;12.57;10.23;;;819.40;2406.40;;;;;;5100423;28;20061;-73
2021/07/16 11:06:09;;;;;;;12.75;10.13;;;819.90;2355.20;;;;;;5107197;28;20046;-74
2021/07/16 11:08:37;;;;;;;14.50;10.15;;;819.40;2355.20;;;;;;5103382;28;20475;-74
2021/07/16 11:11:17;;;;;;;9.75;8.65;;;794.50;2406.40;;;;;;5103660;28;20478;-74
2021/07/16 11:13:44;;;;;;;10.23;8.52;;;794.20;2432.00;;;;;;5102473;28;20061;-74
2021/07/16 11:16:24;;;;;;;10.98;8.32;;;793.90;2432.00;;;;;;5083593;28;20039;-74
2021/07/16 11:18:53;;;;;;;11.68;8.98;;;768.90;2432.00;;;;;;5104916;28;20023;-74
2021/07/16 11:21:53;;;;;;;9.95;7.80;;;768.50;2432.00;;;;;;5085528;28;20114;-74
2021/07/16 11:24:24;;;;;;;12.32;8.15;;;768.20;2432.00;;;;;;5021056;28;20045;-74
2021/07/16 11:27:17;;;;;;;11.20;7.80;;;768.00;2432.00;;;;;;5021273;28;20122;-75
2021/07/16 11:30:13;;;;;;;13.07;9.10;;;743.20;2432.00;;;;;;5021447;28;20045;-75
2021/07/16 11:32:39;;;;;;;10.02;7.40;;;743.00;2432.00;;;;;;5011840;28;20038;-75
2021/07/16 11:35:07;;;;;;;14.18;8.07;;;742.60;2432.00;;;;;;5022928;28;20041;-75
2021/07/16 11:37:40;;;;;;;12.80;9.45;;;742.50;2432.00;;;;;;5014447;28;20029;-75
2021/07/16 11:40:18;;;;;;;11.45;8.43;;;742.60;2432.00;;;;;;5021575;28;20152;-74
2021/07/16 11:42:52;;;;;;;11.48;7.80;;;742.60;2432.00;;;;;;5023978;28;20033;-74
2021/07/16 11:45:32;;;;;;;15.07;8.68;;;742.70;2432.00;;;;;;5028317;28;20080;-74
2021/07/16 11:48:00;;;;;;;10.70;8.00;;;742.90;2432.00;;;;;;5026557;28;20037;-74
2021/07/16 11:50:26;;;;;;;10.13;8.13;;;743.10;2432.00;;;;;;5025095;28;20046;-74
2021/07/16 11:52:54;;;;;;;12.95;9.13;;;768.00;2432.00;;;;;;5024637;28;20059;-74
2021/07/16 11:55:33;;;;;;;8.93;6.68;;;768.70;2432.00;;;;;;5025794;28;20089;-74
2021/07/16 11:58:02;;;;;;;12.70;7.93;;;768.90;2432.00;;;;;;5023725;28;20120;-73
2021/07/16 12:00:37;;;;;;;8.90;7.72;;;794.30;2432.00;;;;;;5088281;28;20790;-74
2021/07/16 12:03:04;;;;;;;10.95;8.93;;;819.50;2432.00;;;;;;5099752;28;20028;-73
2021/07/16 12:05:33;;;;;;;12.88;8.05;;;820.00;2432.00;;;;;;5100773;28;20692;-73
2021/07/16 12:07:59;;;;;;;10.38;8.45;;;819.40;2432.00;;;;;;5102284;28;20123;-74
2021/07/16 12:10:25;;;;;;;10.65;8.00;;;794.40;2432.00;;;;;;5100927;28;20107;-73
2021/07/16 12:12:57;;;;;;;13.13;8.95;;;819.20;2432.00;;;;;;5105403;28;20023;-73
2021/07/16 12:15:24;;;;;;;13.25;8.18;;;794.40;2432.00;;;;;;5083971;28;20039;-74